EW3508 Weather Reports


time (UTC)temp
C
wind
direction
speed
KPH
gust
KPH
rain 1hr
cm
rain 24hr
cm
rain mn
cm
humidity
%
barometer
mb
20191017150033 15 143 3.2 9.7 0.00 0.58 0.18 86 1009.2
20191017145530 15 223 4.8 9.7 0.00 0.58 0.18 86 1009.2
20191017145031 15 171 4.8 9.7 0.00 0.58 0.18 86 1009.2
20191017144531 15 165 4.8 9.7 0.00 0.58 0.18 86 1009.2
20191017144031 15 162 3.2 4.8 0.00 0.58 0.18 86 1009.3
20191017143532 15 182 1.6 9.7 0.00 0.58 0.18 86 1009.3
20191017143031 15 144 3.2 8.0 0.00 0.58 0.18 86 1009.3
20191017142532 15 187 8.0 14.5 0.00 0.58 0.18 86 1009.3
20191017142032 15 122 3.2 11.3 0.00 0.58 0.18 86 1009.4
20191017141531 15 165 3.2 8.0 0.00 0.58 0.18 86 1009.5
20191017141031 15 175 6.4 12.9 0.00 0.58 0.18 86 1009.5
20191017140531 15 182 1.6 4.8 0.00 0.58 0.18 86 1009.5
20191017140033 15 183 3.2 4.8 0.00 0.58 0.18 86 1009.4
20191017135530 15 219 6.4 12.9 0.00 0.58 0.18 86 1009.4
20191017135031 15 157 4.8 11.3 0.00 0.58 0.18 87 1009.4
20191017134530 15 164 3.2 12.9 0.00 0.58 0.18 87 1009.4
20191017134030 15 169 6.4 14.5 0.00 0.58 0.18 88 1009.4
20191017133530 15 141 4.8 14.5 0.00 0.58 0.18 88 1009.5
20191017133031 15 156 3.2 4.8 0.00 0.58 0.18 89 1009.6
20191017132530 15 207 4.8 11.3 0.00 0.58 0.18 89 1009.6
20191017132030 15 157 1.6 8.0 0.00 0.58 0.18 89 1009.6
20191017131530 15 155 1.6 9.7 0.00 0.58 0.18 89 1009.6
20191017131032 15 177 4.8 9.7 0.00 0.58 0.18 89 1009.7
20191017130530 15 221 3.2 14.5 0.00 0.58 0.18 89 1009.6
20191017130033 14 140 3.2 9.7 0.00 0.58 0.18 90 1009.7
20191017125531 14 150 3.2 4.8 0.00 0.58 0.18 90 1009.7
20191017125032 14 225 3.2 8.0 0.00 0.58 0.18 89 1009.8
20191017124531 14 199 3.2 8.0 0.00 0.58 0.18 89 1009.8
20191017124032 14 175 3.2 4.8 0.00 0.58 0.18 89 1009.9
20191017123531 14 164 3.2 11.3 0.00 0.58 0.18 89 1010.0
20191017123031 14 169 4.8 9.7 0.00 0.58 0.18 89 1009.9
20191017122531 14 153 4.8 8.0 0.00 0.58 0.18 90 1009.9
20191017122031 14 155 3.2 9.7 0.00 0.58 0.18 91 1009.9
20191017121531 14 206 8.0 12.9 0.00 0.58 0.18 91 1009.8
20191017121031 14 223 8.0 12.9 0.00 0.58 0.18 91 1009.8
20191017120532 14 165 4.8 9.7 0.00 0.58 0.18 92 1009.8
20191017120033 14 155 4.8 12.9 0.00 0.58 0.18 93 1009.8
20191017115531 14 209 8.0 11.3 0.00 0.58 0.18 93 1009.9
20191017115030 14 213 4.8 9.7 0.00 0.58 0.18 93 1009.8
20191017114531 14 173 4.8 12.9 0.00 0.58 0.18 94 1009.8
20191017114031 13 201 4.8 8.0 0.00 0.58 0.18 94 1009.9
20191017113531 13 153 4.8 11.3 0.00 0.58 0.18 94 1009.9
20191017113031 13 215 4.8 9.7 0.00 0.58 0.18 94 1009.9
20191017112531 13 174 8.0 14.5 0.00 0.58 0.18 95 1009.9
20191017112031 14 154 4.8 11.3 0.00 0.58 0.18 96 1009.9
20191017111532 13 199 6.4 11.3 0.00 0.58 0.18 96 1009.8
20191017111031 13 180 4.8 8.0 0.00 0.58 0.18 96 1009.7
20191017110531 13 205 3.2 8.0 0.00 0.58 0.18 96 1009.7
20191017110033 13 194 3.2 9.7 0.00 0.58 0.18 96 1009.7
20191017105531 13 206 4.8 9.7 0.00 0.58 0.18 96 1009.7
20191017105032 13 163 4.8 9.7 0.00 0.58 0.18 96 1009.7
20191017104532 13 148 4.8 8.0 0.00 0.58 0.18 96 1009.7
20191017104030 13 167 4.8 8.0 0.00 0.58 0.18 96 1009.7
20191017103531 13 146 0.0 9.7 0.00 0.58 0.18 96 1009.6
20191017103031 13 157 4.8 9.7 0.00 0.58 0.18 96 1009.8
20191017102530 13 202 4.8 9.7 0.00 0.58 0.18 96 1009.8
20191017102031 13 214 3.2 4.8 0.00 0.58 0.18 96 1009.8
20191017101531 13 148 3.2 4.8 0.00 0.58 0.18 96 1009.7
20191017101031 13 146 1.6 4.8 0.00 0.58 0.18 96 1009.6
20191017100531 13 225 1.6 4.8 0.00 0.58 0.18 96 1009.5
20191017100037 13 226 0.0 3.2 0.00 0.58 0.18 96 1009.6
20191017095531 13 226 0.0 3.2 0.00 0.58 0.18 96 1009.6
20191017095032 13 226 0.0 0.0 0.00 0.58 0.18 96 1009.6
20191017094532 13 263 0.0 0.0 0.00 0.58 0.18 96 1009.6
20191017094031 13 263 0.0 0.0 0.00 0.58 0.18 96 1009.5
20191017093531 13 263 0.0 0.0 0.00 0.58 0.18 96 1009.5
20191017093032 13 263 0.0 0.0 0.00 0.58 0.18 96 1009.4
20191017092531 13 263 0.0 0.0 0.00 0.58 0.18 96 1009.5
20191017092031 13 263 0.0 0.0 0.00 0.58 0.18 96 1009.4
20191017091531 13 263 0.0 0.0 0.00 0.58 0.18 96 1009.2
20191017091032 12 263 0.0 0.0 0.00 0.58 0.18 96 1009.3
20191017090531 12 263 0.0 0.0 0.00 0.58 0.18 96 1009.3
20191017090033 12 263 0.0 4.8 0.00 0.58 0.18 96 1009.2
20191017085531 12 263 3.2 9.7 0.00 0.58 0.18 96 1009.2
20191017085031 12 277 0.0 0.0 0.00 0.58 0.18 96 1009.1
20191017084530 12 263 0.0 0.0 0.00 0.58 0.18 96 1009.1
20191017084030 12 271 0.0 0.0 0.00 0.58 0.18 96 1009.1
20191017083530 12 279 0.0 4.8 0.00 0.58 0.18 96 1009.1
20191017083031 12 276 3.2 11.3 0.00 0.58 0.18 96 1009.1
20191017082530 12 273 4.8 11.3 0.03 0.58 0.18 96 1009.1
20191017082031 12 263 8.0 11.3 0.03 0.58 0.18 96 1008.9
20191017081532 12 273 3.2 9.7 0.03 0.58 0.18 96 1009.0
20191017081031 12 269 4.8 11.3 0.03 0.58 0.18 96 1008.8
20191017080530 12 271 6.4 12.9 0.03 0.58 0.18 96 1008.8
20191017080033 13 267 4.8 14.5 0.03 0.58 0.18 96 1008.8
20191017075530 13 281 8.0 19.3 0.03 0.58 0.18 96 1008.7
20191017075030 13 279 4.8 9.7 0.03 0.58 0.18 96 1008.6
20191017074530 13 272 4.8 14.5 0.03 0.58 0.18 96 1008.5
20191017074031 13 294 6.4 19.3 0.03 0.58 0.18 96 1008.5
20191017073531 13 269 9.7 20.9 0.03 0.58 0.18 96 1008.4
20191017073030 13 289 6.4 16.1 0.03 0.58 0.18 96 1008.2
20191017072530 13 225 6.4 12.9 0.00 0.56 0.15 96 1008.0
20191017072030 13 248 8.0 12.9 0.00 0.56 0.15 96 1007.9
20191017071530 13 238 4.8 14.5 0.00 0.56 0.15 96 1007.8
20191017071030 13 257 8.0 14.5 0.00 0.56 0.15 96 1007.8
20191017070530 13 206 9.7 16.1 0.00 0.56 0.15 96 1007.8
20191017070033 13 219 4.8 14.5 0.00 0.56 0.15 96 1007.7
20191017065530 13 240 8.0 19.3 0.00 0.56 0.15 96 1007.6
20191017065030 13 204 8.0 14.5 0.00 0.56 0.15 96 1007.5
20191017064530 13 207 6.4 14.5 0.00 0.56 0.15 96 1007.5
20191017064030 13 226 6.4 12.9 0.00 0.56 0.15 96 1007.4
20191017063530 13 213 4.8 12.9 0.00 0.56 0.15 96 1007.4
20191017063035 13 229 4.8 16.1 0.00 0.56 0.15 96 1007.3
20191017062531 13 233 4.8 16.1 0.00 0.56 0.15 96 1007.2
20191017062031 13 238 8.0 14.5 0.00 0.56 0.15 96 1007.1
20191017061531 13 217 6.4 11.3 0.00 0.56 0.15 96 1007.0
20191017061030 13 242 8.0 19.3 0.00 0.56 0.15 96 1006.9
20191017060531 13 196 8.0 16.1 0.00 0.56 0.15 96 1006.9
20191017060033 13 225 8.0 19.3 0.00 0.56 0.15 96 1006.8
20191017055531 13 201 4.8 16.1 0.00 0.56 0.15 96 1006.7
20191017055031 13 215 8.0 19.3 0.00 0.56 0.15 96 1006.7
20191017054530 13 211 4.8 19.3 0.00 0.56 0.15 96 1006.6
20191017054031 13 215 8.0 14.5 0.03 0.56 0.15 96 1006.5
20191017053530 13 139 1.6 12.9 0.03 0.56 0.15 96 1006.5
20191017053031 13 238 3.2 20.9 0.03 0.56 0.15 96 1006.4
20191017052530 13 223 11.3 19.3 0.03 0.56 0.15 96 1006.4
20191017052031 13 200 6.4 20.9 0.03 0.56 0.15 96 1006.4
20191017051530 13 265 8.0 14.5 0.03 0.56 0.15 96 1006.3
20191017051031 13 159 8.0 14.5 0.03 0.56 0.15 96 1006.3
20191017050530 13 206 8.0 19.3 0.03 0.56 0.15 96 1006.3
20191017050033 13 178 6.4 19.3 0.03 0.56 0.15 96 1006.2
20191017045530 13 205 8.0 20.9 0.03 0.56 0.15 96 1006.2
20191017045031 13 169 6.4 20.9 0.03 0.56 0.15 96 1006.2
20191017044530 13 205 8.0 14.5 0.03 0.56 0.15 96 1006.1
20191017044031 13 213 4.8 11.3 0.03 0.53 0.15 96 1006.2
20191017043530 13 236 4.8 14.5 0.03 0.53 0.15 96 1006.1
20191017043031 13 146 6.4 14.5 0.03 0.53 0.15 96 1006.1
20191017042530 13 238 4.8 19.3 0.03 0.53 0.15 96 1006.2
20191017042031 13 176 4.8 11.3 0.03 0.53 0.15 96 1006.1
20191017041530 13 211 4.8 11.3 0.03 0.53 0.15 96 1006.1
20191017041031 13 208 6.4 11.3 0.03 0.56 0.15 96 1006.1
20191017040033 13 142 3.2 11.3 0.05 0.56 0.15 96 1006.1
20191017035530 13 190 3.2 12.9 0.05 0.56 0.15 96 1006.1
20191017035030 13 188 4.8 12.9 0.05 0.56 0.15 96 1006.2
20191017034529 13 259 3.2 11.3 0.05 0.58 0.15 96 1006.2
20191017034030 13 202 4.8 19.3 0.03 0.56 0.13 96 1006.2
20191017033530 13 194 3.2 14.5 0.03 0.56 0.13 96 1006.2
20191017033030 13 216 3.2 16.1 0.03 0.56 0.13 96 1006.2
20191017032531 13 173 3.2 16.1 0.03 0.58 0.13 96 1006.1
20191017032029 13 199 4.8 14.5 0.03 0.58 0.13 96 1006.1
20191017031530 13 151 3.2 14.5 0.03 0.58 0.13 96 1006.1
20191017031030 13 157 4.8 12.9 0.03 0.61 0.13 96 1006.1
20191017030530 13 168 4.8 11.3 0.03 0.61 0.13 96 1006.1
20191017030033 13 157 4.8 14.5 0.00 0.58 0.10 96 1006.0
20191017025530 13 144 4.8 12.9 0.00 0.58 0.10 96 1006.0
20191017025029 13 211 6.4 12.9 0.03 0.58 0.10 96 1006.0
20191017024531 13 188 8.0 16.1 0.03 0.58 0.10 96 1006.0
20191017024030 13 237 4.8 14.5 0.03 0.58 0.10 96 1006.1
20191017023531 13 191 4.8 16.1 0.03 0.58 0.10 96 1006.1
20191017023030 13 224 6.4 16.1 0.03 0.58 0.10 96 1006.1
20191017022529 13 208 8.0 14.5 0.03 0.58 0.10 96 1006.1
20191017022031 13 178 6.4 16.1 0.03 0.58 0.10 96 1006.1
20191017021531 13 169 4.8 11.3 0.03 0.61 0.10 96 1006.2
20191017021030 13 140 4.8 12.9 0.03 0.61 0.10 96 1006.1
20191017020530 13 177 6.4 16.1 0.03 0.61 0.10 96 1006.2
20191017020034 13 161 4.8 14.5 0.03 0.61 0.10 96 1006.2
20191017015530 13 249 6.4 19.3 0.03 0.61 0.10 96 1006.2
20191017015030 13 207 3.2 12.9 0.03 0.61 0.08 96 1006.3
20191017014530 13 211 6.4 19.3 0.03 0.61 0.08 96 1006.2
20191017014030 13 207 4.8 12.9 0.03 0.61 0.08 96 1006.2
20191017013530 13 202 8.0 19.3 0.03 0.61 0.08 96 1006.2
20191017013031 13 146 4.8 12.9 0.03 0.61 0.08 96 1006.2
20191017012530 13 191 9.7 20.9 0.03 0.61 0.08 96 1006.2
20191017012031 13 178 6.4 19.3 0.03 0.61 0.08 96 1006.2
20191017011529 13 188 9.7 19.3 0.03 0.61 0.08 96 1006.2
20191017011029 13 166 6.4 16.1 0.03 0.61 0.08 96 1006.2
20191017010530 13 164 9.7 20.9 0.03 0.61 0.08 96 1006.2
20191017010033 13 148 9.7 19.3 0.03 0.61 0.08 96 1006.2
20191017005530 13 157 4.8 14.5 0.03 0.61 0.08 95 1006.3
20191017005030 13 207 8.0 12.9 0.00 0.58 0.05 95 1006.3
20191017004530 13 187 6.4 19.3 0.00 0.58 0.05 95 1006.3
20191017004030 13 163 6.4 19.3 0.00 0.58 0.05 95 1006.3
20191017003530 13 158 8.0 16.1 0.03 0.58 0.05 95 1006.3
20191017003029 13 238 4.8 19.3 0.03 0.58 0.05 95 1006.3
20191017002530 13 150 9.7 19.3 0.03 0.58 0.05 95 1006.3
20191017002029 13 171 8.0 16.1 0.03 0.58 0.05 95 1006.3
20191017001530 13 196 4.8 16.1 0.03 0.58 0.05 95 1006.3
20191017001030 13 182 8.0 14.5 0.03 0.58 0.05 95 1006.3
20191017000529 13 195 4.8 12.9 0.03 0.58 0.05 95 1006.3
20191017000038 13 173 8.0 14.5 0.03 0.58 0.05 95 1006.3
20191016235530 13 211 6.4 14.5 0.03 0.58 0.05 95 1006.4
20191016235030 13 184 8.0 19.3 0.03 0.58 0.05 96 1006.4
20191016234531 13 242 8.0 27.4 0.03 0.58 0.05 96 1006.3
20191016234030 13 165 3.2 27.4 0.03 0.58 0.05 96 1006.3
20191016233530 13 187 8.0 19.3 0.03 0.56 0.05 96 1006.3
20191016233031 13 176 4.8 16.1 0.03 0.56 0.05 96 1006.3
20191016232530 13 212 11.3 20.9 0.03 0.56 0.05 96 1006.3
20191016232029 13 165 8.0 19.3 0.03 0.56 0.05 96 1006.3
20191016231530 13 214 4.8 14.5 0.03 0.58 0.05 96 1006.3
20191016231029 13 156 8.0 19.3 0.03 0.58 0.05 96 1006.3
20191016230529 13 176 9.7 19.3 0.05 0.58 0.05 96 1006.3
20191016230037 13 219 4.8 19.3 0.05 0.58 0.05 96 1006.3
20191016225529 13 150 9.7 20.9 0.05 0.58 0.05 96 1006.3
20191016225030 13 217 8.0 20.9 0.05 0.58 0.05 96 1006.3
20191016224531 13 206 8.0 19.3 0.08 0.58 0.05 96 1006.3
20191016224029 13 203 8.0 19.3 0.10 0.58 0.05 96 1006.4
20191016223529 13 176 8.0 19.3 0.10 0.56 0.03 95 1006.3
20191016223031 13 141 6.4 19.3 0.13 0.56 0.03 95 1006.4
20191016222530 13 161 4.8 19.3 0.15 0.58 0.03 96 1006.4
20191016222030 13 184 8.0 16.1 0.15 0.58 0.03 95 1006.4
20191016221529 13 202 8.0 20.9 0.18 0.58 0.03 95 1006.4
20191016221029 13 155 4.8 16.1 0.18 0.58 0.03 95 1006.4
20191016220530 13 190 8.0 25.7 0.18 0.56 0.00 95 1006.4
20191016220033 13 136 4.8 14.5 0.18 0.58 0.00 95 1006.4
20191016215530 13 222 11.3 29.0 0.20 0.61 0.61 95 1006.4
20191016215029 13 217 6.4 19.3 0.18 0.58 0.58 95 1006.4
20191016214529 13 143 8.0 12.9 0.15 0.56 0.56 95 1006.4
20191016214030 13 152 6.4 19.3 0.18 0.56 0.56 95 1006.4
20191016213529 13 209 4.8 19.3 0.15 0.53 0.51 95 1006.5
20191016213030 13 165 4.8 12.9 0.13 0.51 0.51 95 1006.5
20191016212529 13 196 12.9 20.9 0.10 0.51 0.48 95 1006.5
20191016212030 13 212 4.8 19.3 0.08 0.51 0.46 95 1006.5
20191016211529 13 179 6.4 16.1 0.05 0.48 0.43 95 1006.5
20191016211029 13 196 6.4 12.9 0.08 0.51 0.43 95 1006.5
20191016210530 13 157 4.8 16.1 0.05 0.48 0.43 95 1006.5
20191016210033 13 209 9.7 19.3 0.05 0.48 0.43 95 1006.5
20191016205530 13 158 6.4 12.9 0.05 0.48 0.41 95 1006.5
20191016205030 13 132 8.0 14.5 0.05 0.48 0.41 95 1006.5
20191016204530 13 217 4.8 19.3 0.05 0.48 0.41 95 1006.5
20191016204030 13 166 6.4 19.3 0.05 0.46 0.38 95 1006.6
20191016203530 13 139 8.0 16.1 0.05 0.46 0.38 95 1006.5
20191016203030 13 190 4.8 14.5 0.08 0.48 0.38 95 1006.5
20191016202529 13 188 9.7 14.5 0.08 0.51 0.38 95 1006.5
20191016202030 13 162 8.0 19.3 0.10 0.51 0.38 95 1006.5
20191016201530 13 257 8.0 20.9 0.10 0.51 0.38 95 1006.5
20191016201030 13 211 4.8 19.3 0.08 0.51 0.36 95 1006.5
20191016200530 13 153 6.4 19.3 0.08 0.51 0.36 95 1006.5
20191016200033 13 171 8.0 19.3 0.08 0.53 0.36 95 1006.5
20191016195530 13 173 8.0 16.1 0.08 0.56 0.36 95 1006.5
20191016195032 13 235 4.8 16.1 0.08 0.53 0.33 95 1006.4
20191016194530 13 178 6.4 16.1 0.10 0.56 0.33 95 1006.4
20191016194030 13 212 8.0 24.1 0.08 0.56 0.33 95 1006.4
20191016193530 13 185 4.8 16.1 0.08 0.56 0.33 95 1006.4
20191016193030 13 206 4.8 16.1 0.05 0.56 0.30 95 1006.3
20191016192529 13 204 9.7 16.1 0.05 0.58 0.30 95 1006.4
20191016192032 13 232 4.8 12.9 0.05 0.58 0.28 95 1006.4
20191016191530 13 202 8.0 19.3 0.05 0.61 0.28 95 1006.4
20191016191030 13 178 4.8 16.1 0.05 0.61 0.28 95 1006.4
20191016190530 13 207 11.3 19.3 0.05 0.61 0.28 95 1006.4
20191016190033 13 150 8.0 14.5 0.05 0.64 0.28 95 1006.3
20191016185530 13 179 8.0 22.5 0.05 0.64 0.28 95 1006.3
20191016185030 13 149 9.7 16.1 0.03 0.61 0.25 94 1006.4
20191016184530 13 140 4.8 11.3 0.00 0.61 0.23 94 1006.3
20191016184030 13 204 4.8 16.1 0.00 0.64 0.23 94 1006.4
20191016183530 13 235 6.4 14.5 0.00 0.64 0.23 94 1006.4
20191016183030 13 167 6.4 16.1 0.00 0.64 0.23 94 1006.4
20191016182530 13 199 6.4 20.9 0.00 0.66 0.23 94 1006.4
20191016182030 13 161 4.8 11.3 0.00 0.69 0.23 94 1006.5
20191016181530 13 230 8.0 12.9 0.00 0.69 0.23 94 1006.5
20191016181030 13 171 6.4 11.3 0.00 0.69 0.23 94 1006.5
20191016180530 13 144 4.8 9.7 0.00 0.71 0.23 94 1006.6
20191016180033 13 162 4.8 14.5 0.03 0.71 0.23 94 1006.6
20191016175530 13 200 6.4 16.1 0.03 0.71 0.23 94 1006.6
20191016175030 13 164 6.4 16.1 0.03 0.71 0.23 94 1006.6
20191016174530 13 165 8.0 16.1 0.03 0.71 0.23 94 1006.6
20191016174031 13 138 4.8 14.5 0.03 0.74 0.23 94 1006.6
20191016173530 13 167 3.2 12.9 0.05 0.74 0.23 94 1006.6
20191016173030 13 153 4.8 16.1 0.05 0.74 0.23 94 1006.6
20191016172530 13 198 4.8 12.9 0.05 0.74 0.23 93 1006.6
20191016172031 13 101 4.8 16.1 0.05 0.74 0.23 93 1006.6
20191016171530 13 206 4.8 16.1 0.05 0.74 0.23 93 1006.6
20191016171030 13 162 3.2 8.0 0.05 0.74 0.23 93 1006.6
20191016170530 13 180 4.8 14.5 0.05 0.74 0.23 93 1006.6
20191016170033 13 185 4.8 11.3 0.03 0.71 0.23 93 1006.6
20191016165530 13 169 4.8 19.3 0.03 0.74 0.23 93 1006.5
20191016165031 13 145 3.2 9.7 0.03 0.74 0.23 93 1006.6
20191016164530 13 194 4.8 12.9 0.03 0.74 0.23 93 1006.6
20191016164030 13 159 1.6 8.0 0.03 0.74 0.23 92 1006.6
20191016163533 13 180 4.8 11.3 0.00 0.71 0.20 92 1006.5
20191016163030 13 194 3.2 11.3 0.00 0.71 0.20 92 1006.5
20191016162531 13 128 4.8 12.9 0.00 0.71 0.20 92 1006.4
20191016162031 13 196 4.8 8.0 0.00 0.71 0.20 92 1006.5
20191016161532 13 167 4.8 12.9 0.00 0.71 0.20 92 1006.5
20191016161032 13 142 3.2 9.7 0.00 0.74 0.20 92 1006.5
20191016160033 13 165 4.8 16.1 0.00 0.76 0.20 91 1006.6
20191016155530 13 236 4.8 16.1 0.00 0.76 0.20 91 1006.5
20191016155031 13 151 3.2 14.5 0.00 0.76 0.20 91 1006.5
20191016154531 13 136 3.2 8.0 0.00 0.76 0.20 91 1006.5
20191016154031 13 171 4.8 11.3 0.00 0.76 0.20 90 1006.5
20191016153530 13 150 6.4 11.3 0.00 0.76 0.20 90 1006.5
20191016153030 13 151 8.0 12.9 0.00 0.76 0.20 90 1006.6
20191016152531 13 198 6.4 19.3 0.00 0.76 0.20 89 1006.6
20191016152031 13 132 3.2 11.3 0.00 0.76 0.20 89 1006.6
20191016151533 13 158 4.8 11.3 0.00 0.76 0.20 89 1006.7
20191016151032 13 167 3.2 12.9 0.00 0.76 0.20 89 1006.7
20191016150530 14 151 3.2 19.3 0.00 0.76 0.20 88 1006.7